Time;durP1;ratioP1;P1;durP2;ratioP2;P2;SDS_P1;SDS_P2;PMS_P1;PMS_P2;Temp;Humidity;BMP_temperature;BMP_pressure;BME280_temperature;BME280_humidity;BME280_pressure;Samples;Min_cycle;Max_cycle;Signal;HPM_P1;HPM_P2
2023/07/15 00:01:36;;;;;;;;;1.00;1.00;;;;;18.07;82.61;98378.84;4945375;28;107428;-87
2023/07/15 00:04:11;;;;;;;;;2.00;2.00;;;;;18.13;84.44;98395.09;4944885;28;102102;-85
2023/07/15 00:06:39;;;;;;;;;2.00;2.00;;;;;18.08;86.07;98395.03;4927980;28;101900;-86
2023/07/15 00:09:06;;;;;;;;;4.00;4.00;;;;;17.89;87.43;98385.47;4956377;28;101656;-86
2023/07/15 00:11:42;;;;;;;;;5.67;4.67;;;;;17.71;89.62;98374.81;4947831;28;103563;-85
2023/07/15 00:14:19;;;;;;;;;3.67;3.67;;;;;17.69;90.16;98402.44;4933095;28;101822;-86
2023/07/15 00:16:46;;;;;;;;;6.33;6.33;;;;;17.63;91.03;98394.41;4946633;28;102389;-86
2023/07/15 00:19:13;;;;;;;;;7.00;7.00;;;;;17.34;92.21;98385.44;4944688;28;102072;-85
2023/07/15 00:21:40;;;;;;;;;9.00;9.00;;;;;17.14;93.62;98385.13;4942904;28;103750;-86
2023/07/15 00:24:08;;;;;;;;;8.00;8.00;;;;;17.17;93.99;98398.28;4944594;28;101705;-86
2023/07/15 00:26:35;;;;;;;;;6.67;6.67;;;;;17.04;94.76;98385.78;4943859;28;101612;-86
2023/07/15 00:29:04;;;;;;;;;3.00;3.00;;;;;17.14;94.38;98387.88;4952673;28;101902;-86
2023/07/15 00:31:33;;;;;;;;;6.00;6.00;;;;;16.86;94.71;98355.97;4929230;28;107825;-87
2023/07/15 00:34:01;;;;;;;;;2.00;1.00;;;;;17.00;94.82;98386.53;4947884;28;103013;-87
2023/07/15 00:36:31;;;;;;;;;5.00;5.00;;;;;17.03;93.24;98386.03;4937147;28;102012;-86
2023/07/15 00:38:58;;;;;;;;;5.33;5.33;;;;;16.82;92.83;98380.22;4944883;28;102201;-86
2023/07/15 00:41:31;;;;;;;;;6.00;5.00;;;;;16.65;94.56;98363.00;4948111;28;103966;-86
2023/07/15 00:43:58;;;;;;;;;4.00;4.00;;;;;16.78;95.07;98391.88;4949752;28;102122;-86
2023/07/15 00:46:47;;;;;;;;;5.00;4.00;;;;;16.32;97.54;98349.25;4947287;28;101937;-86
2023/07/15 00:49:32;;;;;;;;;5.67;5.67;;;;;16.42;98.14;98388.47;4945648;28;101858;-87
2023/07/15 00:52:04;;;;;;;;;5.67;3.00;;;;;16.35;99.60;98390.50;4947279;28;106904;-86
2023/07/15 00:54:45;;;;;;;;;4.00;4.00;;;;;16.27;98.80;98370.97;4946604;28;101747;-87
2023/07/15 00:57:15;;;;;;;;;4.00;4.00;;;;;16.33;100.00;98383.66;4946474;28;102779;-86
2023/07/15 00:59:44;;;;;;;;;5.00;4.00;;;;;16.26;99.80;98369.28;4932364;28;101610;-86
2023/07/15 01:02:13;;;;;;;;;9.00;7.00;;;;;15.96;100.00;98359.44;4944715;28;103538;-86
2023/07/15 01:04:53;;;;;;;;;3.33;3.33;;;;;16.04;100.00;98378.16;4946257;28;101480;-86
2023/07/15 01:07:38;;;;;;;;;4.00;4.00;;;;;16.01;100.00;98373.19;4948179;28;101616;-87
2023/07/15 01:10:25;;;;;;;;;4.00;3.75;;;;;16.04;100.00;98374.59;4945117;28;101677;-87
2023/07/15 01:13:11;;;;;;;;;4.00;4.00;;;;;15.99;100.00;98369.03;4946067;28;107027;-87
2023/07/15 01:16:00;;;;;;;;;4.00;4.00;;;;;16.01;100.00;98377.81;4944336;28;101477;-86
2023/07/15 01:18:42;;;;;;;;;5.00;5.00;;;;;15.75;100.00;98351.91;4944487;28;102653;-85
2023/07/15 01:21:21;;;;;;;;;4.00;4.00;;;;;15.83;100.00;98376.06;4940841;28;101598;-87
2023/07/15 01:23:48;;;;;;;;;4.00;4.00;;;;;15.87;100.00;98373.69;4951713;28;103570;-87
2023/07/15 01:26:15;;;;;;;;;3.00;3.00;;;;;15.78;100.00;98356.88;4950823;28;101620;-87
2023/07/15 01:28:42;;;;;;;;;3.33;3.00;;;;;15.84;100.00;98357.81;4943567;28;101569;-86
2023/07/15 01:31:09;;;;;;;;;4.00;4.00;;;;;15.72;100.00;98357.81;4933473;28;101598;-86
2023/07/15 01:33:37;;;;;;;;;4.00;3.00;;;;;15.72;100.00;98362.44;4948247;28;103427;-87
2023/07/15 01:36:04;;;;;;;;;5.00;5.00;;;;;15.76;99.91;98369.91;4949997;28;102129;-85
2023/07/15 01:38:32;;;;;;;;;2.00;2.00;;;;;15.60;100.00;98343.41;4932826;28;102230;-87
2023/07/15 01:40:59;;;;;;;;;2.00;2.00;;;;;15.69;100.00;98363.78;4949950;28;103110;-86
2023/07/15 01:43:26;;;;;;;;;6.00;6.00;;;;;15.49;100.00;98363.31;4947933;28;103448;-85
2023/07/15 01:45:54;;;;;;;;;5.25;5.00;;;;;15.44;100.00;98364.03;4950831;28;101681;-86
2023/07/15 01:48:21;;;;;;;;;4.50;4.50;;;;;15.46;100.00;98361.88;4934075;28;101671;-86
2023/07/15 01:50:51;;;;;;;;;2.50;2.50;;;;;15.46;100.00;98363.75;4930870;28;101503;-86
2023/07/15 01:53:18;;;;;;;;;3.25;3.25;;;;;15.40;100.00;98359.28;4946545;28;103518;-86
2023/07/15 01:55:46;;;;;;;;;3.75;3.75;;;;;15.42;100.00;98370.75;4949413;28;101633;-87
2023/07/15 01:58:13;;;;;;;;;3.00;3.00;;;;;15.37;100.00;98366.03;4930710;28;101714;-86
2023/07/15 02:00:40;;;;;;;;;2.00;2.00;;;;;15.48;100.00;98375.25;4950179;28;101942;-85
2023/07/15 02:03:07;;;;;;;;;3.00;2.50;;;;;15.47;100.00;98365.44;4948222;28;103566;-85
2023/07/15 02:05:34;;;;;;;;;2.00;2.00;;;;;15.45;100.00;98373.00;4946334;28;101930;-85
2023/07/15 02:08:01;;;;;;;;;2.25;2.00;;;;;15.48;100.00;98384.28;4932018;28;101875;-86
2023/07/15 02:10:30;;;;;;;;;2.00;2.00;;;;;15.34;100.00;98358.34;4949108;28;103547;-86
2023/07/15 02:12:57;;;;;;;;;3.50;3.50;;;;;15.45;100.00;98378.44;4948873;28;103379;-86
2023/07/15 02:15:24;;;;;;;;;2.00;2.00;;;;;15.32;100.00;98351.44;4950253;28;106493;-86
2023/07/15 02:17:51;;;;;;;;;4.25;3.25;;;;;15.38;100.00;98358.69;4947137;28;101911;-86
2023/07/15 02:20:19;;;;;;;;;3.50;3.50;;;;;15.34;100.00;98366.50;4948524;28;102661;-85
2023/07/15 02:22:46;;;;;;;;;5.00;4.00;;;;;15.37;100.00;98366.03;4948149;28;103477;-85
2023/07/15 02:25:13;;;;;;;;;3.25;3.00;;;;;15.35;100.00;98387.25;4947046;28;101629;-86
2023/07/15 02:27:40;;;;;;;;;3.75;3.25;;;;;15.30;100.00;98383.56;4949372;28;101754;-85
2023/07/15 02:30:09;;;;;;;;;3.00;3.00;;;;;15.25;100.00;98386.16;4947885;28;102216;-86
2023/07/15 02:32:41;;;;;;;;;3.50;3.00;;;;;15.09;100.00;98363.16;4948519;28;103356;-86
2023/07/15 02:35:10;;;;;;;;;4.50;4.00;;;;;15.18;100.00;98391.72;4943439;28;101635;-85
2023/07/15 02:37:38;;;;;;;;;3.50;3.50;;;;;15.15;100.00;98384.84;4947023;28;103468;-85
2023/07/15 02:40:08;;;;;;;;;1.75;1.75;;;;;15.13;100.00;98386.13;4946706;28;101592;-85
2023/07/15 02:42:36;;;;;;;;;3.00;3.00;;;;;14.98;100.00;98356.66;4948737;28;103747;-85
2023/07/15 02:45:04;;;;;;;;;3.00;3.00;;;;;15.07;100.00;98378.91;4952494;28;101502;-86
2023/07/15 02:47:32;;;;;;;;;5.50;5.50;;;;;15.09;100.00;98385.78;4932911;28;101677;-88
2023/07/15 02:50:06;;;;;;;;;4.00;4.00;;;;;15.03;100.00;98375.00;4949462;28;101881;-86
2023/07/15 02:52:34;;;;;;;;;4.75;4.75;;;;;15.01;100.00;98371.69;4929037;28;108003;-85
2023/07/15 02:55:04;;;;;;;;;2.75;2.75;;;;;14.88;100.00;98356.41;4949244;28;101907;-86
2023/07/15 02:57:32;;;;;;;;;6.25;3.50;;;;;14.95;100.00;98378.88;4951331;28;101587;-86
2023/07/15 03:00:00;;;;;;;;;3.75;3.75;;;;;15.02;100.00;98393.25;4935324;28;101976;-88
2023/07/15 03:02:30;;;;;;;;;3.75;3.75;;;;;14.99;100.00;98391.00;4948735;28;103471;-88
2023/07/15 03:04:57;;;;;;;;;2.75;2.75;;;;;14.96;100.00;98391.44;4944764;28;101727;-87
2023/07/15 03:07:24;;;;;;;;;3.25;3.25;;;;;14.98;100.00;98402.13;4951982;28;102475;-87
2023/07/15 03:09:51;;;;;;;;;2.75;2.75;;;;;15.00;100.00;98389.91;4951086;28;101610;-86
2023/07/15 03:12:18;;;;;;;;;2.25;2.25;;;;;14.95;100.00;98373.44;4945164;28;103396;-86
2023/07/15 03:14:46;;;;;;;;;3.00;3.00;;;;;15.07;100.00;98387.94;4944841;28;101608;-86
2023/07/15 03:17:15;;;;;;;;;1.75;1.25;;;;;15.10;100.00;98394.78;4948571;28;101822;-87
2023/07/15 03:19:42;;;;;;;;;2.75;2.00;;;;;14.81;100.00;98339.34;4949528;28;102479;-87
2023/07/15 03:22:09;;;;;;;;;3.25;3.00;;;;;15.08;100.00;98383.31;4926160;28;105074;-86
2023/07/15 03:24:36;;;;;;;;;10.75;9.25;;;;;14.90;100.00;98377.97;4929451;28;101824;-87
2023/07/15 03:27:03;;;;;;;;;9.75;9.75;;;;;14.75;100.00;98372.94;4931165;28;102632;-87
2023/07/15 03:29:32;;;;;;;;;9.50;9.50;;;;;14.75;100.00;98381.13;4929606;28;102522;-87
2023/07/15 03:31:59;;;;;;;;;8.00;8.00;;;;;14.81;100.00;98391.06;4925679;28;105923;-87
2023/07/15 03:34:26;;;;;;;;;6.00;6.00;;;;;14.90;100.00;98394.28;4925678;28;102629;-86
2023/07/15 03:36:53;;;;;;;;;7.25;7.00;;;;;14.89;100.00;98393.47;4926047;28;101892;-86
2023/07/15 03:39:21;;;;;;;;;8.00;7.00;;;;;14.92;100.00;98394.88;4929985;28;101761;-86
2023/07/15 03:41:48;;;;;;;;;6.00;5.00;;;;;14.98;100.00;98389.34;4927487;28;103533;-86
2023/07/15 03:44:15;;;;;;;;;4.00;4.00;;;;;14.95;100.00;98370.72;4918405;28;101913;-87
2023/07/15 03:46:42;;;;;;;;;3.00;3.00;;;;;15.17;100.00;98390.06;4918511;28;101774;-87
2023/07/15 03:49:10;;;;;;;;;3.50;3.00;;;;;15.11;100.00;98364.59;4930665;28;101602;-86
2023/07/15 03:51:37;;;;;;;;;4.00;3.00;;;;;15.33;100.00;98381.19;4928610;28;103520;-86
2023/07/15 03:54:05;;;;;;;;;2.75;2.75;;;;;15.48;100.00;98394.34;4930679;28;107724;-88
2023/07/15 03:56:33;;;;;;;;;1.33;1.33;;;;;15.61;100.00;98394.13;4928526;28;101596;-86
2023/07/15 03:59:01;;;;;;;;;1.75;1.75;;;;;15.63;100.00;98375.63;4930718;28;101934;-87
2023/07/15 04:01:28;;;;;;;;;2.00;2.00;;;;;15.72;100.00;98373.34;4929648;28;103835;-87
2023/07/15 04:03:55;;;;;;;;;2.00;2.00;;;;;15.46;100.00;98318.28;4932833;28;106756;-87
2023/07/15 04:06:22;;;;;;;;;2.00;2.00;;;;;16.10;100.00;98390.00;4927836;28;101615;-87
2023/07/15 04:08:50;;;;;;;;;1.00;1.00;;;;;16.22;100.00;98389.94;4934141;28;101838;-87
2023/07/15 04:11:17;;;;;;;;;3.00;2.00;;;;;16.38;100.00;98400.13;4932688;28;103663;-87
2023/07/15 04:13:44;;;;;;;;;1.00;1.00;;;;;16.52;100.00;98394.09;4929154;28;102021;-87
2023/07/15 04:16:12;;;;;;;;;2.00;2.00;;;;;16.68;100.00;98389.81;4930588;28;101868;-87
2023/07/15 04:18:42;;;;;;;;;2.00;2.00;;;;;16.68;100.00;98372.59;4933543;28;102218;-87
2023/07/15 04:21:09;;;;;;;;;3.00;2.33;;;;;16.94;100.00;98405.56;4930280;28;104996;-87
2023/07/15 04:23:36;;;;;;;;;3.00;3.00;;;;;17.04;100.00;98398.63;4950600;28;101924;-86
2023/07/15 04:26:03;;;;;;;;;3.00;2.67;;;;;17.15;100.00;98395.00;4951534;28;102016;-87
2023/07/15 04:28:31;;;;;;;;;2.00;2.00;;;;;17.28;100.00;98400.94;4952549;28;101539;-89
2023/07/15 04:30:58;;;;;;;;;1.00;1.00;;;;;17.33;100.00;98390.09;4932884;28;103399;-89
2023/07/15 04:33:25;;;;;;;;;2.00;2.00;;;;;17.53;98.86;98407.88;4949519;28;102621;-89
2023/07/15 04:35:52;;;;;;;;;1.67;1.67;;;;;17.66;98.07;98402.91;4946585;28;101842;-88
2023/07/15 04:38:21;;;;;;;;;2.00;2.00;;;;;17.77;97.95;98398.44;4950470;28;101920;-88
2023/07/15 04:40:48;;;;;;;;;4.67;3.00;;;;;17.98;96.89;98410.47;4954194;28;103522;-87
2023/07/15 04:43:15;;;;;;;;;2.00;1.00;;;;;18.16;97.39;98401.94;4956568;28;101672;-89
2023/07/15 04:45:42;;;;;;;;;3.00;3.00;;;;;18.33;94.97;98396.44;4953101;28;101581;-88
2023/07/15 04:48:10;;;;;;;;;1.00;1.00;;;;;18.54;92.68;98399.16;4952619;28;101671;-89
2023/07/15 04:50:38;;;;;;;;;2.33;2.33;;;;;18.83;92.67;98401.63;4952451;28;105719;-88
2023/07/15 04:53:05;;;;;;;;;2.67;2.67;;;;;19.12;90.35;98403.84;4952867;28;101535;-87
2023/07/15 04:55:33;;;;;;;;;2.33;2.33;;;;;19.27;88.44;98381.22;4954617;28;101569;-89
2023/07/15 04:58:00;;;;;;;;;5.33;5.00;;;;;19.58;89.60;98380.38;4951319;28;102396;-89
2023/07/15 05:00:29;;;;;;;;;4.00;4.00;;;;;19.94;85.86;98405.28;4952741;28;103890;-89
2023/07/15 05:02:56;;;;;;;;;3.33;3.33;;;;;20.14;86.23;98402.63;4952071;28;101903;-88
2023/07/15 05:05:23;;;;;;;;;6.00;6.00;;;;;20.51;85.66;98412.69;4950610;28;101856;-89
2023/07/15 05:07:51;;;;;;;;;8.67;6.00;;;;;20.82;84.63;98406.19;4949909;28;101957;-88
2023/07/15 05:10:25;;;;;;;;;6.00;6.00;;;;;21.07;79.83;98398.00;4950934;28;103436;-88
2023/07/15 05:12:52;;;;;;;;;8.33;8.33;;;;;21.40;82.74;98399.41;4950523;28;101863;-88
2023/07/15 05:15:19;;;;;;;;;12.00;11.33;;;;;21.75;79.91;98396.59;4947222;28;101517;-88
2023/07/15 05:17:46;;;;;;;;;10.33;9.33;;;;;22.21;78.60;98411.09;4949634;28;102019;-88
2023/07/15 05:20:13;;;;;;;;;11.67;11.67;;;;;22.38;75.18;98399.72;4931589;28;103655;-88
2023/07/15 05:22:41;;;;;;;;;9.33;8.67;;;;;22.64;76.77;98400.44;4949445;28;101839;-89
2023/07/15 05:25:09;;;;;;;;;12.33;12.00;;;;;22.92;74.85;98408.00;4930079;28;101823;-86
2023/07/15 05:27:40;;;;;;;;;11.00;10.67;;;;;23.11;74.69;98397.97;4939659;28;102140;-88
2023/07/15 05:30:11;;;;;;;;;10.00;10.00;;;;;23.29;72.81;98407.47;4945503;28;103657;-87
2023/07/15 05:32:38;;;;;;;;;8.67;8.00;;;;;23.50;70.94;98414.53;4941822;28;101958;-87
2023/07/15 05:35:05;;;;;;;;;8.00;7.33;;;;;23.68;68.54;98410.22;4948585;28;101983;-88
2023/07/15 05:37:32;;;;;;;;;6.33;6.33;;;;;23.76;69.34;98401.31;4951727;28;101628;-89
2023/07/15 05:40:00;;;;;;;;;8.33;8.00;;;;;23.84;68.76;98383.28;4948613;28;107937;-88
2023/07/15 05:42:27;;;;;;;;;7.67;7.00;;;;;24.23;66.42;98403.28;4947347;28;101666;-90
2023/07/15 05:44:54;;;;;;;;;11.00;10.00;;;;;24.42;71.27;98406.94;4948111;28;102591;-90
2023/07/15 05:47:22;;;;;;;;;10.33;9.67;;;;;24.55;68.44;98388.81;4948188;28;102566;-87
2023/07/15 05:49:50;;;;;;;;;6.00;6.00;;;;;24.72;66.15;98391.09;4929874;28;103039;-89
2023/07/15 05:52:17;;;;;;;;;8.00;8.00;;;;;24.93;65.43;98388.88;4944982;28;101568;-87
2023/07/15 05:54:44;;;;;;;;;7.00;7.00;;;;;25.00;65.29;98381.81;4947724;28;101576;-88
2023/07/15 05:57:11;;;;;;;;;7.67;7.67;;;;;25.19;66.86;98398.41;4946815;28;101785;-88
2023/07/15 05:59:39;;;;;;;;;7.67;7.67;;;;;25.26;63.46;98379.50;4945686;28;102661;-87
2023/07/15 06:02:06;;;;;;;;;6.00;6.00;;;;;25.45;63.19;98394.09;4947522;28;101801;-85
2023/07/15 06:04:33;;;;;;;;;7.00;7.00;;;;;25.47;62.81;98383.56;4948391;28;101545;-87
2023/07/15 06:07:00;;;;;;;;;7.00;7.00;;;;;25.65;63.83;98393.78;4953145;28;101579;-89
2023/07/15 06:09:27;;;;;;;;;9.00;8.33;;;;;25.74;64.07;98380.91;4943417;28;103800;-87
2023/07/15 06:11:54;;;;;;;;;8.33;8.00;;;;;25.87;62.62;98383.97;4945908;28;101586;-87
2023/07/15 06:14:21;;;;;;;;;6.33;6.33;;;;;25.92;60.69;98389.44;4944234;28;103199;-89
2023/07/15 06:16:48;;;;;;;;;10.00;9.00;;;;;26.08;63.11;98411.00;4945945;28;102355;-89
2023/07/15 06:19:15;;;;;;;;;4.67;4.67;;;;;26.17;63.86;98397.25;4948839;28;104695;-88
2023/07/15 06:22:35;;;;;;;;;9.00;9.00;;;;;26.34;60.42;98408.59;4946963;28;101528;-90
2023/07/15 06:25:02;;;;;;;;;8.67;8.00;;;;;26.31;61.91;98380.66;4941980;28;101997;-89
2023/07/15 06:27:29;;;;;;;;;3.00;3.00;;;;;26.37;59.22;98394.09;4942484;28;101709;-88
2023/07/15 06:29:56;;;;;;;;;6.33;6.00;;;;;26.50;59.88;98412.69;4946107;28;103595;-88
2023/07/15 06:32:23;;;;;;;;;6.00;5.67;;;;;26.58;59.64;98409.19;4941098;28;101665;-88
2023/07/15 06:34:50;;;;;;;;;7.00;7.00;;;;;26.67;60.99;98409.28;4944368;28;103532;-88
2023/07/15 06:37:20;;;;;;;;;5.67;5.67;;;;;26.77;59.96;98414.59;4946583;28;101630;-89
2023/07/15 06:39:50;;;;;;;;;6.33;6.33;;;;;26.80;59.19;98396.50;4942046;28;103605;-88
2023/07/15 06:42:18;;;;;;;;;6.00;5.00;;;;;26.97;58.75;98405.84;4947802;28;101688;-88
2023/07/15 06:44:45;;;;;;;;;6.00;5.00;;;;;27.01;58.09;98408.84;4943648;28;102505;-87
2023/07/15 06:47:15;;;;;;;;;5.00;4.33;;;;;27.12;61.29;98407.44;4944608;28;101932;-90
2023/07/15 06:49:42;;;;;;;;;4.67;4.67;;;;;27.25;58.86;98401.03;4928682;28;103310;-88
2023/07/15 06:52:09;;;;;;;;;8.00;8.00;;;;;27.47;60.73;98397.41;4944671;28;101900;-87
2023/07/15 06:54:36;;;;;;;;;9.00;7.33;;;;;27.62;60.85;98382.38;4946744;28;103034;-86
2023/07/15 06:57:03;;;;;;;;;5.33;5.00;;;;;27.95;58.28;98401.22;4951903;28;102037;-88
2023/07/15 06:59:30;;;;;;;;;4.67;4.00;;;;;27.99;56.14;98390.25;4930281;28;103496;-90
2023/07/15 07:01:58;;;;;;;;;5.33;5.33;;;;;28.10;56.88;98405.53;4950529;28;102446;-88
2023/07/15 07:04:25;;;;;;;;;3.00;3.00;;;;;28.09;57.30;98390.00;4947501;28;101648;-88
2023/07/15 07:06:52;;;;;;;;;4.33;4.33;;;;;28.26;54.00;98404.00;4930461;28;101670;-89
2023/07/15 07:09:19;;;;;;;;;3.00;3.00;;;;;28.27;55.17;98402.88;4949414;28;103302;-89
2023/07/15 07:11:46;;;;;;;;;1.25;1.25;;;;;28.36;55.44;98400.94;4948179;28;106272;-90
2023/07/15 07:14:13;;;;;;;;;1.25;1.25;;;;;28.37;54.96;98382.25;4948832;28;101568;-88
2023/07/15 07:16:40;;;;;;;;;2.25;2.25;;;;;28.47;53.47;98398.66;4949414;28;101857;-87
2023/07/15 07:19:07;;;;;;;;;0.50;0.50;;;;;28.42;53.49;98379.31;4949250;28;103430;-86
2023/07/15 07:21:34;;;;;;;;;2.25;1.50;;;;;28.51;52.69;98396.03;4949746;28;103047;-88
2023/07/15 07:24:01;;;;;;;;;3.00;3.00;;;;;28.47;52.66;98397.84;4947486;28;102322;-88
2023/07/15 07:26:29;;;;;;;;;1.25;1.25;;;;;28.27;51.67;98393.69;4947012;28;102909;-85
2023/07/15 07:28:56;;;;;;;;;3.00;2.00;;;;;28.33;53.12;98400.72;4947560;28;103274;-86
2023/07/15 07:31:23;;;;;;;;;3.00;3.00;;;;;28.28;54.39;98396.13;4948478;28;102041;-91
2023/07/15 07:33:50;;;;;;;;;1.00;0.50;;;;;28.38;54.53;98395.84;4946480;28;101818;-87
2023/07/15 07:36:17;;;;;;;;;1.50;1.50;;;;;28.40;52.98;98398.31;4950421;28;101712;-91
2023/07/15 07:38:45;;;;;;;;;2.00;2.00;;;;;28.49;54.37;98401.13;4933795;28;103520;-89
2023/07/15 07:41:13;;;;;;;;;2.00;2.00;;;;;28.44;53.10;98402.09;4951381;28;101956;-87
2023/07/15 07:43:40;;;;;;;;;2.00;1.75;;;;;28.57;55.77;98386.41;4951996;28;102886;-89
2023/07/15 07:46:10;;;;;;;;;1.00;1.00;;;;;28.48;53.75;98382.78;4953041;28;102385;-85
2023/07/15 07:48:37;;;;;;;;;6.33;6.33;;;;;27.91;51.74;98379.94;4951164;28;103941;-87
2023/07/15 07:51:05;;;;;;;;;2.33;2.33;;;;;28.20;56.78;98390.53;4953697;28;102235;-86
2023/07/15 07:53:32;;;;;;;;;1.33;1.33;;;;;28.27;55.60;98390.91;4950411;28;104402;-87
2023/07/15 07:55:59;;;;;;;;;2.00;2.00;;;;;28.29;52.21;98405.31;4950843;28;101844;-86
2023/07/15 07:58:27;;;;;;;;;3.33;3.00;;;;;28.04;53.79;98384.56;4944881;28;103735;-87
2023/07/15 08:00:54;;;;;;;;;7.67;7.67;;;;;28.00;55.27;98378.00;4953151;28;102360;-89
2023/07/15 08:03:21;;;;;;;;;3.67;3.00;;;;;28.04;56.09;98379.00;4953094;28;101988;-89
2023/07/15 08:05:48;;;;;;;;;5.00;4.00;;;;;28.22;57.34;98399.41;4955447;28;101511;-88
2023/07/15 08:08:16;;;;;;;;;3.25;3.00;;;;;28.16;57.90;98367.31;4952555;28;103613;-90
2023/07/15 08:10:43;;;;;;;;;3.50;3.50;;;;;28.23;57.62;98376.84;4952950;28;101880;-87
2023/07/15 08:13:10;;;;;;;;;4.00;4.00;;;;;28.44;56.77;98399.31;4949950;28;101941;-87
2023/07/15 08:15:38;;;;;;;;;3.00;3.00;;;;;28.41;55.25;98390.81;4948308;28;102198;-86
2023/07/15 08:18:06;;;;;;;;;2.00;2.00;;;;;28.28;55.50;98379.44;4945861;28;103390;-86
2023/07/15 08:20:34;;;;;;;;;3.00;3.00;;;;;28.33;55.59;98376.53;4953142;28;101587;-87
2023/07/15 08:23:01;;;;;;;;;3.00;3.00;;;;;28.45;56.52;98372.31;4949625;28;101909;-89
2023/07/15 08:25:29;;;;;;;;;2.67;2.67;;;;;28.63;56.25;98385.13;4931720;28;101665;-88
2023/07/15 08:27:58;;;;;;;;;3.00;3.00;;;;;28.49;56.86;98345.50;4950820;28;103591;-87
2023/07/15 08:30:25;;;;;;;;;2.00;2.00;;;;;28.80;54.52;98376.84;4927881;28;101691;-89
2023/07/15 08:32:52;;;;;;;;;2.50;2.00;;;;;28.79;54.79;98378.78;4946532;28;102149;-88
2023/07/15 08:35:20;;;;;;;;;2.00;2.00;;;;;28.90;54.72;98370.97;4949226;28;101645;-89
2023/07/15 08:37:47;;;;;;;;;2.00;2.00;;;;;28.88;53.84;98367.66;4948968;28;103643;-87
2023/07/15 08:40:21;;;;;;;;;0.00;0.00;;;;;28.87;54.72;98366.03;4939993;28;103015;-90
2023/07/15 08:42:48;;;;;;;;;2.50;2.50;;;;;28.79;50.68;98358.50;4948950;28;101580;-90
2023/07/15 08:45:16;;;;;;;;;4.33;3.00;;;;;28.83;52.41;98363.09;4952844;28;101658;-89
2023/07/15 08:47:44;;;;;;;;;4.00;4.00;;;;;28.91;53.05;98382.91;4932971;28;102409;-89
2023/07/15 08:50:15;;;;;;;;;4.67;4.67;;;;;28.98;53.90;98370.13;4901138;28;102456;-88
2023/07/15 08:52:43;;;;;;;;;3.00;3.00;;;;;29.00;53.67;98367.84;4951252;28;102994;-89
2023/07/15 08:55:13;;;;;;;;;2.00;2.00;;;;;29.13;53.40;98378.03;4950064;28;101692;-87
2023/07/15 08:57:40;;;;;;;;;1.75;1.75;;;;;29.27;52.10;98367.50;4950358;28;103599;-89
2023/07/15 09:00:12;;;;;;;;;2.00;2.00;;;;;29.30;54.98;98359.69;4949152;28;101783;-88
2023/07/15 09:02:39;;;;;;;;;2.25;2.25;;;;;29.30;51.41;98349.38;4950126;28;102172;-90
2023/07/15 09:05:08;;;;;;;;;2.00;2.00;;;;;29.25;51.80;98360.63;4931961;28;101803;-88
2023/07/15 09:07:53;;;;;;;;;3.00;2.00;;;;;29.26;51.84;98357.53;4943798;28;107960;-87
2023/07/15 09:10:20;;;;;;;;;2.25;2.00;;;;;29.36;53.03;98366.72;4948387;28;101512;-90
2023/07/15 09:12:52;;;;;;;;;1.00;1.00;;;;;29.43;53.00;98361.47;4951395;28;101523;-92
2023/07/15 09:15:20;;;;;;;;;2.25;2.25;;;;;29.50;53.36;98368.16;4951425;28;101680;-94
2023/07/15 09:17:53;;;;;;;;;2.00;2.00;;;;;29.40;52.75;98364.91;4936912;28;103638;-87
2023/07/15 09:20:22;;;;;;;;;2.25;2.25;;;;;29.36;53.75;98336.09;4951047;28;101587;-91
2023/07/15 09:22:59;;;;;;;;;2.50;2.50;;;;;29.63;53.21;98363.56;4945742;28;101908;-92
2023/07/15 09:25:27;;;;;;;;;1.25;1.25;;;;;29.69;51.03;98357.47;4949901;28;106888;-90
2023/07/15 09:27:55;;;;;;;;;2.25;2.25;;;;;29.72;51.25;98364.34;4950042;28;103359;-91
2023/07/15 09:30:22;;;;;;;;;3.00;3.00;;;;;29.66;50.80;98363.72;4950935;28;101779;-91
2023/07/15 09:32:49;;;;;;;;;3.50;3.00;;;;;29.09;48.29;98338.03;4940068;28;101624;-91
2023/07/15 09:35:17;;;;;;;;;3.50;3.50;;;;;28.96;48.55;98350.16;4947195;28;101696;-94
2023/07/15 09:37:48;;;;;;;;;2.25;2.25;;;;;28.64;49.57;98356.16;4950300;28;103547;-90
2023/07/15 09:40:15;;;;;;;;;1.25;1.25;;;;;28.85;49.31;98351.63;4953758;28;101533;-89
2023/07/15 09:42:53;;;;;;;;;1.75;1.75;;;;;29.07;48.65;98345.09;4954681;28;101907;-91
2023/07/15 09:45:35;;;;;;;;;2.00;2.00;;;;;29.18;50.43;98340.84;4949452;28;101954;-93
2023/07/15 09:48:11;;;;;;;;;1.00;1.00;;;;;29.04;49.44;98340.19;4933656;28;108425;-93
2023/07/15 09:50:40;;;;;;;;;1.00;1.00;;;;;29.18;50.23;98351.97;4950908;28;101786;-88
2023/07/15 09:53:08;;;;;;;;;1.00;1.00;;;;;29.18;51.00;98327.69;4951073;28;102579;-85
2023/07/15 09:55:37;;;;;;;;;2.50;1.50;;;;;29.37;49.65;98348.84;4954976;28;101862;-89
2023/07/15 09:58:24;;;;;;;;;3.50;3.25;;;;;29.54;49.93;98341.28;4952875;28;107667;-92
2023/07/15 10:01:23;;;;;;;;;2.00;2.00;;;;;29.75;49.80;98355.34;4939333;28;101521;-91
2023/07/15 10:04:01;;;;;;;;;2.00;2.00;;;;;29.90;46.68;98354.81;4943597;28;101675;-88
2023/07/15 10:06:29;;;;;;;;;4.00;3.75;;;;;29.81;45.92;98342.03;4953618;28;101683;-90
2023/07/15 10:08:58;;;;;;;;;3.00;3.00;;;;;30.07;49.82;98351.16;4946693;28;103522;-90
2023/07/15 10:11:29;;;;;;;;;2.00;2.00;;;;;30.19;49.42;98336.50;4952473;28;103112;-90
2023/07/15 10:13:57;;;;;;;;;1.00;1.00;;;;;30.34;48.85;98338.72;4953000;28;101658;-89
2023/07/15 10:16:25;;;;;;;;;1.25;1.25;;;;;30.46;47.27;98350.00;4952820;28;101681;-89
2023/07/15 10:18:55;;;;;;;;;2.00;2.00;;;;;30.29;44.61;98333.31;4944292;28;103671;-83
2023/07/15 10:21:22;;;;;;;;;7.50;6.50;;;;;30.14;45.57;98335.53;4939609;28;101680;-90
2023/07/15 10:24:07;;;;;;;;;5.00;4.00;;;;;29.69;46.98;98289.75;4937362;28;101520;-88
2023/07/15 10:26:34;;;;;;;;;2.75;2.75;;;;;30.20;47.50;98343.72;4951455;28;101663;-88
2023/07/15 10:29:03;;;;;;;;;2.00;1.00;;;;;30.24;44.90;98339.09;4950397;28;103520;-90
2023/07/15 10:31:30;;;;;;;;;1.00;1.00;;;;;30.24;45.49;98323.19;4952753;28;101764;-87
2023/07/15 10:33:59;;;;;;;;;3.25;2.00;;;;;30.23;42.67;98323.50;4950483;28;101850;-89
2023/07/15 10:36:36;;;;;;;;;1.25;1.25;;;;;30.28;42.65;98351.22;4943898;28;101624;-90
2023/07/15 10:39:17;;;;;;;;;3.00;3.00;;;;;30.24;44.49;98336.31;4948422;28;108252;-89
2023/07/15 10:41:53;;;;;;;;;2.00;2.00;;;;;30.26;44.75;98325.63;4949913;28;101648;-89
2023/07/15 10:44:25;;;;;;;;;2.00;2.00;;;;;30.26;44.16;98332.00;4947435;28;101495;-88
2023/07/15 10:47:00;;;;;;;;;1.00;1.00;;;;;30.33;45.49;98342.66;4949259;28;102516;-88
2023/07/15 10:49:30;;;;;;;;;2.50;2.50;;;;;30.16;43.98;98332.41;4948878;28;103747;-89
2023/07/15 10:51:57;;;;;;;;;4.00;4.00;;;;;30.04;44.68;98335.06;4934403;28;101573;-90
2023/07/15 10:54:27;;;;;;;;;3.00;3.00;;;;;30.12;45.84;98323.09;4950387;28;101925;-87
2023/07/15 10:56:55;;;;;;;;;3.00;2.00;;;;;30.31;43.74;98331.81;4951863;28;102136;-90
2023/07/15 10:59:45;;;;;;;;;2.00;2.00;;;;;30.32;42.07;98325.09;4948467;28;104736;-91
2023/07/15 11:02:13;;;;;;;;;2.50;2.50;;;;;30.26;43.71;98315.28;4942002;28;101706;-90
2023/07/15 11:04:41;;;;;;;;;2.00;2.00;;;;;30.45;44.33;98334.41;4948776;28;102011;-87
2023/07/15 11:07:10;;;;;;;;;3.00;3.00;;;;;30.43;44.17;98328.31;4957645;28;101887;-85
2023/07/15 11:09:41;;;;;;;;;3.00;3.00;;;;;30.45;43.30;98323.25;4953284;28;103490;-85
2023/07/15 11:12:09;;;;;;;;;3.25;3.25;;;;;30.52;43.95;98323.53;4952661;28;102970;-86
2023/07/15 11:14:42;;;;;;;;;2.00;2.00;;;;;30.70;44.02;98330.63;4953114;28;101633;-88
2023/07/15 11:17:15;;;;;;;;;1.00;1.00;;;;;30.83;44.62;98320.34;4952360;28;101684;-84
2023/07/15 11:19:45;;;;;;;;;2.25;2.25;;;;;30.76;46.13;98315.31;4939328;28;103110;-88
2023/07/15 11:22:12;;;;;;;;;1.00;1.00;;;;;30.87;44.73;98313.75;4955943;28;102499;-89
2023/07/15 11:24:39;;;;;;;;;3.50;3.50;;;;;30.75;42.81;98307.28;4955839;28;102911;-88
2023/07/15 11:27:06;;;;;;;;;6.25;5.50;;;;;30.60;43.05;98314.28;4957310;28;102047;-85
2023/07/15 11:29:33;;;;;;;;;6.50;6.00;;;;;30.47;41.41;98304.19;4954450;28;112307;-89
2023/07/15 11:32:02;;;;;;;;;3.50;3.00;;;;;30.43;44.07;98303.22;4956306;28;102572;-88